Time;durP1;ratioP1;P1;durP2;ratioP2;P2;SDS_P1;SDS_P2;PMS_P1;PMS_P2;Temp;Humidity;BMP_temperature;BMP_pressure;BME280_temperature;BME280_humidity;BME280_pressure;Samples;Min_cycle;Max_cycle;Signal;HPM_P1;HPM_P2
2023/03/17 00:00:14;;;;;;;;;;;;;;;6.61;56.58;95298.38;5067945;28;19972;-62
2023/03/17 00:02:42;;;;;;;;;;;;;;;6.69;56.26;95298.88;5069992;28;19975;-61
2023/03/17 00:05:16;;;;;;;;;;;;;;;6.48;56.59;95299.34;5070859;28;20439;-61
2023/03/17 00:07:44;;;;;;;;;;;;;;;5.58;58.63;95265.56;5067970;28;19950;-61
2023/03/17 00:10:17;;;;;;;;;;;;;;;5.72;58.96;95293.00;5068630;28;19943;-62
2023/03/17 00:12:44;;;;;;;;;;;;;;;5.78;59.02;95307.75;5070290;28;19964;-61
2023/03/17 00:15:12;;;;;;;;;;;;;;;6.32;57.71;95304.38;5070580;28;19980;-61
2023/03/17 00:17:39;;;;;;;;;;;;;;;5.62;59.92;95310.91;5068201;28;20391;-60
2023/03/17 00:20:10;;;;;;;;;;;;;;;5.61;59.00;95306.72;5066037;28;19961;-61
2023/03/17 00:22:37;;;;;;;;;;;;;;;6.08;58.19;95303.44;5069904;28;19983;-60
2023/03/17 00:25:15;;;;;;;;;;;;;;;5.31;60.00;95311.00;5070439;28;19951;-61
2023/03/17 00:27:42;;;;;;;;;;;;;;;5.64;59.44;95307.06;5069193;28;19954;-61
2023/03/17 00:30:10;;;;;;;;;;;;;;;5.96;58.74;95305.19;5065598;28;19955;-60
2023/03/17 00:32:37;;;;;;;;;;;;;;;6.32;57.72;95302.56;5069646;28;19981;-60
2023/03/17 00:35:13;;;;;;;;;;;;;;;5.81;58.38;95296.91;5070026;28;20320;-61
2023/03/17 00:37:40;;;;;;;;;;;;;;;6.39;57.32;95300.66;5067366;28;20069;-60
2023/03/17 00:40:17;;;;;;;;;;;;;;;6.67;57.20;95303.53;5066373;28;20415;-61
2023/03/17 00:42:45;;;;;;;;;;;;;;;6.91;55.77;95297.38;5061900;28;19954;-61
2023/03/17 00:45:13;;;;;;;;;;;;;;;6.50;56.44;95301.72;5068431;28;19983;-62
2023/03/17 00:47:40;;;;;;;;;;;;;;;6.95;56.39;95301.09;5067325;28;20005;-62
2023/03/17 00:50:11;;;;;;;;;;;;;;;6.22;57.18;95304.91;5066031;28;20076;-61
2023/03/17 00:52:39;;;;;;;;;;;;;;;6.34;57.18;95308.34;5059528;28;19972;-60
2023/03/17 00:55:08;;;;;;;;;;;;;;;6.79;55.57;95306.16;5069125;28;19947;-61
2023/03/17 00:57:36;;;;;;;;;;;;;;;6.11;57.93;95306.41;5067927;28;20008;-61
2023/03/17 01:00:03;;;;;;;;;;;;;;;6.29;57.16;95308.22;5067412;28;19957;-61
2023/03/17 01:02:31;;;;;;;;;;;;;;;6.60;57.19;95313.22;5069569;28;19944;-60
2023/03/17 01:04:59;;;;;;;;;;;;;;;6.03;57.74;95311.91;5069683;28;19957;-60
2023/03/17 01:07:32;;;;;;;;;;;;;;;6.24;57.43;95310.66;5067791;28;20420;-62
2023/03/17 01:10:00;;;;;;;;;;;;;;;6.18;58.13;95314.16;5067248;28;19948;-60
2023/03/17 01:12:26;;;;;;;;;;;;;;;5.83;58.55;95307.91;5065726;28;19948;-62
2023/03/17 01:14:53;;;;;;;;;;;;;;;6.43;57.09;95312.25;5067889;28;19946;-61
2023/03/17 01:17:20;;;;;;;;;;;;;;;6.13;57.45;95317.38;5070272;28;20418;-61
2023/03/17 01:19:48;;;;;;;;;;;;;;;6.20;57.79;95317.34;5063828;28;19954;-61
2023/03/17 01:22:14;;;;;;;;;;;;;;;6.22;56.99;95315.31;5055019;28;19947;-60
2023/03/17 01:24:41;;;;;;;;;;;;;;;6.06;57.74;95321.88;5069027;28;20354;-61
2023/03/17 01:27:08;;;;;;;;;;;;;;;5.57;59.10;95318.53;5067011;28;19962;-62
2023/03/17 01:29:35;;;;;;;;;;;;;;;5.95;58.27;95319.19;5064629;28;19984;-61
2023/03/17 01:32:02;;;;;;;;;;;;;;;6.25;57.40;95320.06;5068457;28;20464;-61
2023/03/17 01:34:29;;;;;;;;;;;;;;;6.29;57.97;95325.63;5067429;28;19952;-62
2023/03/17 01:36:56;;;;;;;;;;;;;;;6.25;57.98;95320.06;5068428;28;19948;-60
2023/03/17 01:39:22;;;;;;;;;;;;;;;6.13;57.04;95314.03;5067835;28;20026;-62
2023/03/17 01:41:55;;;;;;;;;;;;;;;6.34;57.04;95312.75;5068015;28;20330;-60
2023/03/17 01:44:22;;;;;;;;;;;;;;;6.09;57.54;95316.22;5070043;28;19988;-62
2023/03/17 01:46:49;;;;;;;;;;;;;;;6.44;56.67;95321.63;5068720;28;20452;-61
2023/03/17 01:49:16;;;;;;;;;;;;;;;6.73;55.67;95318.25;5064702;28;19949;-62
2023/03/17 01:51:59;;;;;;;;;;;;;;;6.15;56.85;95319.78;5070388;28;20010;-61
2023/03/17 01:54:33;;;;;;;;;;;;;;;6.47;57.24;95318.59;5067409;28;19954;-61
2023/03/17 01:57:22;;;;;;;;;;;;;;;6.90;55.91;95319.22;5068254;28;20042;-63
2023/03/17 01:59:51;;;;;;;;;;;;;;;6.18;57.91;95323.75;5055566;28;19994;-61
2023/03/17 02:02:21;;;;;;;;;;;;;;;5.88;58.34;95323.66;5066822;28;19955;-61
2023/03/17 02:04:50;;;;;;;;;;;;;;;6.51;56.83;95335.38;5066937;28;19949;-60
2023/03/17 02:07:19;;;;;;;;;;;;;;;6.00;58.21;95332.38;5068029;28;20065;-61
2023/03/17 02:09:46;;;;;;;;;;;;;;;6.24;57.40;95333.31;5065059;28;19985;-60
2023/03/17 02:12:14;;;;;;;;;;;;;;;5.92;58.22;95337.84;5067854;28;19957;-61
2023/03/17 02:14:40;;;;;;;;;;;;;;;6.75;56.84;95338.88;5066968;28;19987;-61
2023/03/17 02:17:07;;;;;;;;;;;;;;;6.80;56.14;95334.59;5067906;28;19949;-61
2023/03/17 02:19:34;;;;;;;;;;;;;;;6.52;56.65;95341.34;5069073;28;19960;-61
2023/03/17 02:22:01;;;;;;;;;;;;;;;6.91;55.92;95336.44;5072034;28;19999;-60
2023/03/17 02:24:33;;;;;;;;;;;;;;;6.46;56.46;95340.44;5072341;28;20047;-60
2023/03/17 02:27:04;;;;;;;;;;;;;;;6.06;58.12;95347.09;5072073;28;20014;-61
2023/03/17 02:29:32;;;;;;;;;;;;;;;6.80;56.54;95339.81;5069374;28;19998;-60
2023/03/17 02:31:59;;;;;;;;;;;;;;;5.88;58.10;95341.88;5071906;28;19976;-61
2023/03/17 02:34:28;;;;;;;;;;;;;;;6.27;57.30;95344.06;5071800;28;20001;-60
2023/03/17 02:36:56;;;;;;;;;;;;;;;6.20;57.41;95353.75;5071877;28;20473;-61
2023/03/17 02:39:22;;;;;;;;;;;;;;;6.90;55.69;95353.09;5067506;28;20446;-62
2023/03/17 02:41:49;;;;;;;;;;;;;;;6.79;55.68;95351.22;5070208;28;19977;-61
2023/03/17 02:44:16;;;;;;;;;;;;;;;6.97;55.03;95356.38;5070509;28;19961;-61
2023/03/17 02:46:43;;;;;;;;;;;;;;;7.32;54.67;95364.31;5082967;28;19950;-61
2023/03/17 02:49:10;;;;;;;;;;;;;;;6.92;55.10;95366.69;5066085;28;19979;-61
2023/03/17 02:51:37;;;;;;;;;;;;;;;6.78;55.01;95365.28;5071515;28;19970;-62
2023/03/17 02:54:04;;;;;;;;;;;;;;;6.26;56.43;95362.50;5072144;28;19949;-61
2023/03/17 02:56:31;;;;;;;;;;;;;;;6.37;55.92;95365.16;5071497;28;20005;-62
2023/03/17 02:58:58;;;;;;;;;;;;;;;6.57;55.74;95365.72;5067654;28;19981;-60
2023/03/17 03:01:25;;;;;;;;;;;;;;;6.49;55.73;95363.44;5071117;28;20455;-60
2023/03/17 03:03:52;;;;;;;;;;;;;;;6.32;56.71;95370.22;5070449;28;20367;-61
2023/03/17 03:06:19;;;;;;;;;;;;;;;6.15;56.59;95361.41;5071153;28;20071;-61
2023/03/17 03:08:45;;;;;;;;;;;;;;;6.20;57.20;95374.56;5067321;28;19962;-62
2023/03/17 03:11:13;;;;;;;;;;;;;;;6.36;55.88;95379.19;5070880;28;20635;-61
2023/03/17 03:13:39;;;;;;;;;;;;;;;6.22;56.32;95377.75;5071906;28;19979;-61
2023/03/17 03:16:07;;;;;;;;;;;;;;;6.15;57.34;95374.41;5069649;28;19985;-62
2023/03/17 03:18:34;;;;;;;;;;;;;;;6.09;56.40;95378.66;5067440;28;19954;-62
2023/03/17 03:21:00;;;;;;;;;;;;;;;6.19;56.61;95383.38;5071199;28;19966;-61
2023/03/17 03:23:27;;;;;;;;;;;;;;;6.01;56.72;95396.38;5071939;28;19951;-62
2023/03/17 03:25:54;;;;;;;;;;;;;;;6.19;56.95;95391.19;5073307;28;20051;-60
2023/03/17 03:28:21;;;;;;;;;;;;;;;5.79;57.31;95393.34;5068655;28;20447;-60
2023/03/17 03:30:48;;;;;;;;;;;;;;;6.06;56.75;95399.13;5070787;28;20027;-61
2023/03/17 03:33:15;;;;;;;;;;;;;;;6.18;56.50;95389.59;5072617;28;19961;-61
2023/03/17 03:35:43;;;;;;;;;;;;;;;6.58;55.90;95395.97;5071328;28;20376;-61
2023/03/17 03:38:10;;;;;;;;;;;;;;;6.39;55.66;95401.38;5067556;28;20076;-61
2023/03/17 03:40:37;;;;;;;;;;;;;;;5.94;57.55;95395.63;5069625;28;19992;-60
2023/03/17 03:43:05;;;;;;;;;;;;;;;6.46;56.15;95395.09;5071093;28;20048;-61
2023/03/17 03:45:45;;;;;;;;;;;;;;;6.11;56.20;95399.28;5070787;28;19994;-61
2023/03/17 03:48:12;;;;;;;;;;;;;;;6.02;57.25;95398.75;5067934;28;19950;-62
2023/03/17 03:50:39;;;;;;;;;;;;;;;6.31;56.50;95399.09;5067187;28;19961;-62
2023/03/17 03:53:06;;;;;;;;;;;;;;;6.25;56.87;95397.34;5070949;28;19955;-61
2023/03/17 03:55:33;;;;;;;;;;;;;;;6.60;55.59;95401.75;5070398;28;20000;-60
2023/03/17 03:57:59;;;;;;;;;;;;;;;6.36;56.39;95400.03;5069001;28;19949;-61
2023/03/17 04:00:26;;;;;;;;;;;;;;;6.10;56.41;95410.69;5066981;28;20006;-62
2023/03/17 04:02:54;;;;;;;;;;;;;;;6.30;55.94;95400.88;5069956;28;19960;-61
2023/03/17 04:05:21;;;;;;;;;;;;;;;6.64;55.86;95407.31;5070745;28;19998;-60
2023/03/17 04:07:47;;;;;;;;;;;;;;;6.99;54.53;95410.88;5067736;28;19955;-62
2023/03/17 04:10:14;;;;;;;;;;;;;;;6.56;55.09;95413.63;5066850;28;19947;-62
2023/03/17 04:12:41;;;;;;;;;;;;;;;6.76;55.28;95424.59;5071884;28;20538;-61
2023/03/17 04:15:10;;;;;;;;;;;;;;;7.22;53.82;95420.59;5070934;28;20380;-61
2023/03/17 04:17:36;;;;;;;;;;;;;;;7.36;53.39;95427.22;5069978;28;19948;-61
2023/03/17 04:20:04;;;;;;;;;;;;;;;7.19;53.55;95422.63;5068176;28;20043;-62
2023/03/17 04:22:30;;;;;;;;;;;;;;;6.92;54.75;95426.59;5071511;28;19967;-60
2023/03/17 04:24:57;;;;;;;;;;;;;;;6.98;54.24;95432.75;5071395;28;20038;-62
2023/03/17 04:27:24;;;;;;;;;;;;;;;6.73;54.97;95438.03;5081469;28;20019;-60
2023/03/17 04:29:51;;;;;;;;;;;;;;;7.02;54.51;95432.09;5071434;28;19996;-62
2023/03/17 04:32:18;;;;;;;;;;;;;;;7.07;53.45;95432.22;5069591;28;19951;-61
2023/03/17 04:34:44;;;;;;;;;;;;;;;7.10;53.84;95434.38;5074249;28;19960;-60
2023/03/17 04:37:11;;;;;;;;;;;;;;;7.33;53.43;95432.88;5073547;28;20048;-60
2023/03/17 04:39:38;;;;;;;;;;;;;;;6.98;53.89;95433.53;5068282;28;19956;-61
2023/03/17 04:42:06;;;;;;;;;;;;;;;5.83;56.76;95435.34;5073596;28;20018;-61
2023/03/17 04:44:33;;;;;;;;;;;;;;;6.55;55.51;95438.03;5074313;28;20662;-61
2023/03/17 04:46:59;;;;;;;;;;;;;;;6.26;55.71;95449.16;5073652;28;19946;-60
2023/03/17 04:49:26;;;;;;;;;;;;;;;6.33;55.14;95442.09;5070458;28;20048;-61
2023/03/17 04:51:53;;;;;;;;;;;;;;;6.70;54.87;95441.09;5069080;28;20013;-61
2023/03/17 04:54:20;;;;;;;;;;;;;;;6.68;54.74;95456.13;5068611;28;20048;-61
2023/03/17 04:56:47;;;;;;;;;;;;;;;6.96;54.12;95447.78;5073842;28;20002;-62
2023/03/17 04:59:15;;;;;;;;;;;;;;;6.60;54.81;95453.84;5071729;28;19962;-61
2023/03/17 05:01:42;;;;;;;;;;;;;;;6.54;55.43;95459.09;5068455;28;20056;-60
2023/03/17 05:04:09;;;;;;;;;;;;;;;6.00;55.91;95455.38;5068733;28;19994;-62
2023/03/17 05:06:42;;;;;;;;;;;;;;;6.42;55.65;95459.03;5071447;28;19955;-61
2023/03/17 05:09:08;;;;;;;;;;;;;;;6.79;55.35;95457.22;5072510;28;19992;-61
2023/03/17 05:11:35;;;;;;;;;;;;;;;7.07;54.13;95468.72;5072038;28;19981;-60
2023/03/17 05:14:02;;;;;;;;;;;;;;;7.18;54.35;95473.19;5070609;28;20357;-60
2023/03/17 05:16:29;;;;;;;;;;;;;;;7.40;53.38;95470.09;5069694;28;19949;-61
2023/03/17 05:18:56;;;;;;;;;;;;;;;7.50;52.73;95467.75;5070291;28;19995;-61
2023/03/17 05:21:23;;;;;;;;;;;;;;;7.39;52.81;95477.09;5070446;28;19948;-63
2023/03/17 05:23:49;;;;;;;;;;;;;;;7.42;53.39;95486.31;5064991;28;20072;-61
2023/03/17 05:26:18;;;;;;;;;;;;;;;7.39;53.42;95489.38;5070413;28;19948;-61
2023/03/17 05:28:47;;;;;;;;;;;;;;;7.02;53.73;95492.03;5068997;28;20034;-60
2023/03/17 05:31:13;;;;;;;;;;;;;;;7.66;52.59;95493.19;5069078;28;20304;-63
2023/03/17 05:33:40;;;;;;;;;;;;;;;7.69;52.89;95495.34;5069636;28;19973;-62
2023/03/17 05:36:07;;;;;;;;;;;;;;;6.92;54.83;95493.53;5071990;28;20039;-61
2023/03/17 05:38:34;;;;;;;;;;;;;;;6.78;55.19;95498.09;5068535;28;19945;-61
2023/03/17 05:41:03;;;;;;;;;;;;;;;7.18;54.73;95499.25;5068315;28;20423;-65
2023/03/17 05:43:30;;;;;;;;;;;;;;;6.96;55.26;95489.47;5066661;28;20547;-64
2023/03/17 05:45:56;;;;;;;;;;;;;;;7.34;53.55;95497.81;5068527;28;19945;-63
2023/03/17 05:48:23;;;;;;;;;;;;;;;7.18;53.73;95494.03;5062676;28;19999;-62
2023/03/17 05:50:50;;;;;;;;;;;;;;;7.63;52.52;95506.66;5066652;28;20438;-64
2023/03/17 05:53:17;;;;;;;;;;;;;;;7.34;52.59;95505.66;5066860;28;19948;-62
2023/03/17 05:55:44;;;;;;;;;;;;;;;6.68;54.28;95512.66;5066107;28;19952;-62
2023/03/17 05:58:11;;;;;;;;;;;;;;;6.56;54.89;95506.53;5068510;28;19947;-60
2023/03/17 06:00:38;;;;;;;;;;;;;;;7.17;55.31;95518.47;5068399;28;19959;-63
2023/03/17 06:03:05;;;;;;;;;;;;;;;7.23;53.94;95516.81;5068976;28;19949;-63
2023/03/17 06:05:32;;;;;;;;;;;;;;;7.37;53.11;95517.47;5068893;28;19957;-62
2023/03/17 06:07:59;;;;;;;;;;;;;;;7.14;53.56;95526.75;5069001;28;19998;-61
2023/03/17 06:10:26;;;;;;;;;;;;;;;6.62;54.62;95539.53;5069617;28;19972;-62
2023/03/17 06:12:53;;;;;;;;;;;;;;;6.72;54.83;95543.22;5055923;28;19953;-62
2023/03/17 06:15:20;;;;;;;;;;;;;;;6.86;54.83;95549.91;5069432;28;19952;-63
2023/03/17 06:17:46;;;;;;;;;;;;;;;7.19;54.14;95541.72;5069600;28;19953;-62
2023/03/17 06:20:13;;;;;;;;;;;;;;;7.65;52.88;95543.75;5069537;28;19971;-61
2023/03/17 06:22:41;;;;;;;;;;;;;;;7.27;52.84;95553.66;5068634;28;20043;-64
2023/03/17 06:25:28;;;;;;;;;;;;;;;6.96;54.18;95565.03;5058978;28;19960;-61
2023/03/17 06:27:56;;;;;;;;;;;;;;;7.42;53.13;95551.47;5066721;28;19947;-61
2023/03/17 06:30:24;;;;;;;;;;;;;;;7.24;53.11;95556.72;5068450;28;19948;-61
2023/03/17 06:32:50;;;;;;;;;;;;;;;7.43;52.37;95548.66;5068681;28;19947;-62
2023/03/17 06:35:17;;;;;;;;;;;;;;;7.46;52.11;95552.63;5069040;28;20013;-65
2023/03/17 06:37:44;;;;;;;;;;;;;;;7.17;52.96;95560.19;5068378;28;19944;-62
2023/03/17 06:40:11;;;;;;;;;;;;;;;7.36;53.07;95552.34;5069220;28;20039;-61
2023/03/17 06:42:38;;;;;;;;;;;;;;;8.14;51.04;95561.72;5068593;28;20366;-62
2023/03/17 06:45:05;;;;;;;;;;;;;;;7.57;51.75;95565.72;5069165;28;20468;-61
2023/03/17 06:47:32;;;;;;;;;;;;;;;7.77;51.69;95566.25;5069236;28;20010;-61
2023/03/17 06:49:59;;;;;;;;;;;;;;;7.64;52.28;95561.22;5070086;28;19944;-62
2023/03/17 06:52:26;;;;;;;;;;;;;;;7.79;52.37;95568.66;5070345;28;19945;-61
2023/03/17 06:54:53;;;;;;;;;;;;;;;7.95;51.05;95561.00;5069781;28;20317;-62
2023/03/17 06:57:19;;;;;;;;;;;;;;;7.73;50.94;95565.13;5067409;28;19975;-62
2023/03/17 06:59:46;;;;;;;;;;;;;;;8.07;51.27;95566.25;5069300;28;19950;-62
2023/03/17 07:02:14;;;;;;;;;;;;;;;7.98;50.54;95567.56;5069065;28;20001;-60
2023/03/17 07:04:41;;;;;;;;;;;;;;;7.72;50.69;95573.94;5072223;28;19987;-63
2023/03/17 07:07:08;;;;;;;;;;;;;;;7.98;51.14;95573.59;5073148;28;20005;-61
2023/03/17 07:09:35;;;;;;;;;;;;;;;7.75;51.26;95573.53;5072514;28;19951;-62
2023/03/17 07:12:04;;;;;;;;;;;;;;;7.70;51.96;95575.22;5071961;28;19952;-62
2023/03/17 07:14:33;;;;;;;;;;;;;;;7.81;51.54;95582.28;5059962;28;19953;-62
2023/03/17 07:17:00;;;;;;;;;;;;;;;7.98;50.52;95583.25;5072271;28;19977;-62
2023/03/17 07:19:28;;;;;;;;;;;;;;;7.49;51.29;95580.88;5073315;28;19997;-62
2023/03/17 07:21:55;;;;;;;;;;;;;;;8.09;50.25;95575.44;5071986;28;19946;-62
2023/03/17 07:24:22;;;;;;;;;;;;;;;8.33;50.65;95576.31;5072723;28;20802;-62
2023/03/17 07:26:49;;;;;;;;;;;;;;;8.40;49.78;95577.00;5073038;28;20374;-61
2023/03/17 07:29:16;;;;;;;;;;;;;;;7.90;51.23;95575.75;5072736;28;20006;-61
2023/03/17 07:31:43;;;;;;;;;;;;;;;7.72;51.67;95588.81;5071906;28;20044;-63
2023/03/17 07:34:11;;;;;;;;;;;;;;;8.19;51.00;95580.13;5073120;28;20024;-61
2023/03/17 07:36:38;;;;;;;;;;;;;;;8.27;50.63;95576.41;5075882;28;20003;-62
2023/03/17 07:39:05;;;;;;;;;;;;;;;7.35;51.52;95582.06;5076695;28;19994;-63
2023/03/17 07:41:32;;;;;;;;;;;;;;;8.05;51.38;95583.94;5071932;28;20005;-62
2023/03/17 07:43:59;;;;;;;;;;;;;;;8.65;49.48;95590.66;5071026;28;20370;-62
2023/03/17 07:46:26;;;;;;;;;;;;;;;8.76;48.85;95595.09;5071188;28;19951;-63
2023/03/17 07:48:53;;;;;;;;;;;;;;;8.14;50.07;95595.66;5072366;28;19951;-61
2023/03/17 07:51:22;;;;;;;;;;;;;;;8.66;49.81;95592.28;5071685;28;19951;-61
2023/03/17 07:53:51;;;;;;;;;;;;;;;8.61;49.69;95593.97;5072030;28;19969;-62
2023/03/17 07:56:18;;;;;;;;;;;;;;;9.46;47.74;95597.66;5071232;28;19991;-61
2023/03/17 07:58:45;;;;;;;;;;;;;;;9.48;47.73;95593.00;5071866;28;19951;-61
2023/03/17 08:01:11;;;;;;;;;;;;;;;9.36;48.60;95594.84;5071645;28;19997;-61
2023/03/17 08:03:38;;;;;;;;;;;;;;;9.40;47.58;95593.38;5071788;28;19958;-62
2023/03/17 08:06:07;;;;;;;;;;;;;;;9.89;47.09;95600.63;5069738;28;20044;-61
2023/03/17 08:08:34;;;;;;;;;;;;;;;10.03;46.85;95594.06;5070727;28;20323;-60
2023/03/17 08:11:02;;;;;;;;;;;;;;;10.12;47.02;95597.94;5070643;28;19939;-60
2023/03/17 08:13:32;;;;;;;;;;;;;;;10.11;46.82;95593.72;5071454;28;19958;-61
2023/03/17 08:15:59;;;;;;;;;;;;;;;9.58;47.32;95601.06;5070597;28;19960;-61
2023/03/17 08:18:26;;;;;;;;;;;;;;;9.67;47.59;95599.69;5071527;28;19948;-60
2023/03/17 08:20:52;;;;;;;;;;;;;;;10.04;46.81;95595.66;5070617;28;19942;-61
2023/03/17 08:23:20;;;;;;;;;;;;;;;10.05;46.12;95602.50;5071535;28;20056;-62
2023/03/17 08:25:47;;;;;;;;;;;;;;;9.77;46.94;95594.63;5057825;28;19940;-61
2023/03/17 08:28:15;;;;;;;;;;;;;;;9.87;46.06;95597.44;5071597;28;20060;-59
2023/03/17 08:30:43;;;;;;;;;;;;;;;10.41;45.30;95591.63;5070653;28;20044;-62
2023/03/17 08:33:10;;;;;;;;;;;;;;;10.64;45.37;95595.91;5072039;28;19992;-62
2023/03/17 08:35:39;;;;;;;;;;;;;;;10.58;44.98;95597.69;5071651;28;20386;-60
2023/03/17 08:38:06;;;;;;;;;;;;;;;10.79;44.81;95591.72;5070702;28;20030;-61
2023/03/17 08:40:33;;;;;;;;;;;;;;;10.82;44.78;95593.84;5071071;28;20040;-62
2023/03/17 08:43:00;;;;;;;;;;;;;;;10.88;44.47;95592.91;5069360;28;20400;-61
2023/03/17 08:45:27;;;;;;;;;;;;;;;10.97;44.02;95595.91;5071011;28;19966;-62
2023/03/17 08:47:54;;;;;;;;;;;;;;;10.93;43.28;95590.34;5070241;28;20373;-62
2023/03/17 08:50:22;;;;;;;;;;;;;;;10.58;44.17;95605.53;5069952;28;19992;-65
2023/03/17 08:52:50;;;;;;;;;;;;;;;10.43;44.37;95594.81;5070387;28;19945;-63
2023/03/17 08:55:17;;;;;;;;;;;;;;;10.74;42.98;95596.88;5070770;28;19946;-62
2023/03/17 08:57:44;;;;;;;;;;;;;;;10.95;43.39;95590.91;5069868;28;20025;-63
2023/03/17 09:00:15;;;;;;;;;;;;;;;10.91;43.33;95594.25;5070193;28;20392;-62
2023/03/17 09:02:42;;;;;;;;;;;;;;;10.61;41.88;95591.94;5069930;28;20154;-62
2023/03/17 09:05:11;;;;;;;;;;;;;;;10.91;42.95;95596.88;5070336;28;19968;-61
2023/03/17 09:07:38;;;;;;;;;;;;;;;11.11;42.79;95587.44;5069940;28;20425;-61
2023/03/17 09:10:06;;;;;;;;;;;;;;;10.91;42.81;95600.28;5071471;28;20027;-62
2023/03/17 09:12:33;;;;;;;;;;;;;;;11.04;42.45;95594.69;5069483;28;20011;-62
2023/03/17 09:15:00;;;;;;;;;;;;;;;10.29;42.08;95606.63;5070977;28;19952;-61
2023/03/17 09:17:27;;;;;;;;;;;;;;;10.82;41.76;95598.31;5069653;28;19992;-61
2023/03/17 09:19:55;;;;;;;;;;;;;;;11.06;41.95;95590.00;5070560;28;19953;-61
2023/03/17 09:22:22;;;;;;;;;;;;;;;11.20;42.32;95596.50;5069842;28;19956;-61
2023/03/17 09:24:48;;;;;;;;;;;;;;;11.32;42.22;95598.22;5070405;28;19959;-61
2023/03/17 09:27:15;;;;;;;;;;;;;;;11.55;41.84;95592.75;5069045;28;19951;-61
2023/03/17 09:29:42;;;;;;;;;;;;;;;11.37;40.97;95593.06;5069755;28;20002;-62
2023/03/17 09:32:09;;;;;;;;;;;;;;;10.92;41.53;95594.00;5069031;28;19948;-62
2023/03/17 09:34:36;;;;;;;;;;;;;;;10.84;41.41;95594.41;5070156;28;19950;-62
2023/03/17 09:37:02;;;;;;;;;;;;;;;10.55;41.60;95598.13;5069754;28;20021;-62
2023/03/17 09:39:29;;;;;;;;;;;;;;;10.57;41.37;95606.56;5069948;28;19983;-62
2023/03/17 09:42:11;;;;;;;;;;;;;;;10.73;41.51;95600.53;5069318;28;20403;-64
2023/03/17 09:44:38;;;;;;;;;;;;;;;10.82;40.88;95599.09;5069510;28;20000;-62
2023/03/17 09:47:09;;;;;;;;;;;;;;;11.35;41.11;95605.63;5068607;28;20322;-62
2023/03/17 09:49:38;;;;;;;;;;;;;;;11.40;40.46;95595.19;5069612;28;19951;-62
2023/03/17 09:52:10;;;;;;;;;;;;;;;11.59;40.46;95601.72;5069649;28;19977;-62
2023/03/17 09:54:37;;;;;;;;;;;;;;;11.39;40.90;95606.69;5069689;28;19950;-61
2023/03/17 09:57:16;;;;;;;;;;;;;;;11.64;40.55;95601.78;5069266;28;20038;-63
2023/03/17 09:59:46;;;;;;;;;;;;;;;11.69;40.09;95605.31;5069598;28;19952;-61
2023/03/17 10:02:29;;;;;;;;;;;;;;;11.59;39.80;95605.13;5070028;28;20001;-62
2023/03/17 10:04:56;;;;;;;;;;;;;;;11.37;39.22;95611.44;5057303;28;20010;-62
2023/03/17 10:07:36;;;;;;;;;;;;;;;11.35;38.52;95603.00;5069640;28;19943;-61
2023/03/17 10:10:04;;;;;;;;;;;;;;;11.44;39.62;95604.16;5070275;28;19986;-60
2023/03/17 10:12:40;;;;;;;;;;;;;;;11.50;38.87;95600.56;5069626;28;19996;-62
2023/03/17 10:15:16;;;;;;;;;;;;;;;11.44;38.62;95601.53;5070251;28;19950;-64
2023/03/17 10:17:46;;;;;;;;;;;;;;;11.25;37.83;95608.91;5057026;28;20010;-62
2023/03/17 10:20:27;;;;;;;;;;;;;;;11.44;37.74;95604.16;5068962;28;19945;-61
2023/03/17 10:22:56;;;;;;;;;;;;;;;11.65;38.40;95603.41;5068900;28;20395;-62
2023/03/17 10:25:27;;;;;;;;;;;;;;;11.91;37.95;95602.66;5068931;28;19961;-61
2023/03/17 10:28:01;;;;;;;;;;;;;;;11.81;39.25;95597.28;5069351;28;19953;-63
2023/03/17 10:30:29;;;;;;;;;;;;;;;11.56;37.48;95595.13;5069658;28;19995;-60
2023/03/17 10:32:58;;;;;;;;;;;;;;;11.84;37.59;95591.56;5069135;28;20415;-62
2023/03/17 10:35:26;;;;;;;;;;;;;;;11.99;37.00;95595.13;5056424;28;19952;-61
2023/03/17 10:37:53;;;;;;;;;;;;;;;12.20;37.22;95590.88;5070473;28;20409;-61
2023/03/17 10:40:40;;;;;;;;;;;;;;;12.26;37.48;95589.09;5073174;28;20062;-61
2023/03/17 10:43:15;;;;;;;;;;;;;;;12.21;36.66;95587.22;5073313;28;19997;-61
2023/03/17 10:45:46;;;;;;;;;;;;;;;12.45;37.54;95583.22;5073133;28;19950;-62
2023/03/17 10:48:17;;;;;;;;;;;;;;;12.03;36.78;95587.56;5061200;28;20382;-62
2023/03/17 10:50:45;;;;;;;;;;;;;;;12.24;36.83;95591.97;5073167;28;19998;-64
2023/03/17 10:53:26;;;;;;;;;;;;;;;12.34;36.53;95586.81;5072945;28;19963;-62
2023/03/17 10:55:58;;;;;;;;;;;;;;;12.38;37.18;95574.75;5072571;28;19942;-62
2023/03/17 10:58:36;;;;;;;;;;;;;;;12.45;36.76;95572.72;5073024;28;20209;-62
2023/03/17 11:01:25;;;;;;;;;;;;;;;12.67;36.29;95570.78;5072910;28;19956;-63
2023/03/17 11:03:52;;;;;;;;;;;;;;;11.99;35.43;95566.25;5073338;28;19953;-63
2023/03/17 11:06:25;;;;;;;;;;;;;;;12.25;35.32;95559.41;5072210;28;19990;-63
2023/03/17 11:08:53;;;;;;;;;;;;;;;12.25;36.01;95551.50;5072745;28;20071;-62
2023/03/17 11:11:22;;;;;;;;;;;;;;;12.31;36.30;95547.91;5072735;28;19985;-63
2023/03/17 11:13:48;;;;;;;;;;;;;;;12.64;36.74;95542.38;5071568;28;19960;-61
2023/03/17 11:16:15;;;;;;;;;;;;;;;11.85;35.95;95551.13;5072397;28;19984;-61
2023/03/17 11:18:42;;;;;;;;;;;;;;;12.18;36.09;95550.94;5072561;28;19998;-63
2023/03/17 11:21:09;;;;;;;;;;;;;;;12.12;35.18;95552.72;5071806;28;20403;-62
2023/03/17 11:23:50;;;;;;;;;;;;;;;12.47;35.46;95554.88;5072159;28;19957;-63
2023/03/17 11:26:26;;;;;;;;;;;;;;;12.94;36.14;95545.22;5072660;28;19982;-62
2023/03/17 11:29:04;;;;;;;;;;;;;;;13.40;36.08;95548.09;5073156;28;19956;-62
2023/03/17 11:31:34;;;;;;;;;;;;;;;12.93;35.33;95548.09;5073419;28;20038;-62
2023/03/17 11:34:08;;;;;;;;;;;;;;;13.55;35.71;95545.53;5072723;28;20321;-62
2023/03/17 11:36:43;;;;;;;;;;;;;;;13.56;35.21;95532.13;5071769;28;19949;-62
2023/03/17 11:39:22;;;;;;;;;;;;;;;13.74;35.55;95533.50;5072513;28;19973;-63
2023/03/17 11:42:05;;;;;;;;;;;;;;;13.46;33.70;95528.66;5059225;28;20084;-62
2023/03/17 11:44:46;;;;;;;;;;;;;;;13.51;34.34;95528.69;5071907;28;20454;-62
2023/03/17 11:47:38;;;;;;;;;;;;;;;13.75;33.95;95538.53;5071628;28;19979;-60
2023/03/17 11:50:22;;;;;;;;;;;;;;;13.58;33.88;95537.91;5060110;28;19969;-64
2023/03/17 11:52:48;;;;;;;;;;;;;;;13.97;33.60;95533.84;5071482;28;19977;-62
2023/03/17 11:55:16;;;;;;;;;;;;;;;14.41;33.67;95528.91;5071929;28;20634;-60
2023/03/17 11:57:43;;;;;;;;;;;;;;;14.83;33.33;95521.50;5071445;28;19977;-63
2023/03/17 12:00:17;;;;;;;;;;;;;;;14.87;33.41;95517.25;5073419;28;19979;-64
2023/03/17 12:02:56;;;;;;;;;;;;;;;14.78;32.70;95513.56;5070998;28;19977;-62
2023/03/17 12:05:27;;;;;;;;;;;;;;;14.93;32.16;95515.41;5071817;28;20550;-61
2023/03/17 12:07:54;;;;;;;;;;;;;;;15.10;31.26;95511.41;5069864;28;19987;-64
2023/03/17 12:10:21;;;;;;;;;;;;;;;14.64;31.45;95517.81;5071979;28;19982;-63
2023/03/17 12:12:57;;;;;;;;;;;;;;;14.67;32.23;95517.28;5071299;28;20006;-62
2023/03/17 12:15:35;;;;;;;;;;;;;;;15.12;32.63;95514.59;5071172;28;20020;-64
2023/03/17 12:18:10;;;;;;;;;;;;;;;15.25;32.86;95500.78;5071384;28;20018;-61
2023/03/17 12:20:40;;;;;;;;;;;;;;;15.27;32.03;95511.88;5070944;28;20357;-63
2023/03/17 12:23:30;;;;;;;;;;;;;;;15.05;31.58;95497.44;5071288;28;20009;-61
2023/03/17 12:26:06;;;;;;;;;;;;;;;15.42;30.53;95497.09;5056489;28;20240;-62
2023/03/17 12:28:37;;;;;;;;;;;;;;;15.34;31.47;95500.25;5071183;28;20353;-61
2023/03/17 12:31:11;;;;;;;;;;;;;;;15.17;31.35;95495.28;5069769;28;20012;-62
2023/03/17 12:33:48;;;;;;;;;;;;;;;15.17;31.67;95490.81;5071525;28;20068;-61
2023/03/17 12:36:16;;;;;;;;;;;;;;;15.40;32.05;95489.38;5071025;28;19974;-60
2023/03/17 12:39:04;;;;;;;;;;;;;;;15.64;32.04;95494.84;5071474;28;19953;-62
2023/03/17 12:41:39;;;;;;;;;;;;;;;15.66;31.35;95490.88;5070005;28;19966;-62
2023/03/17 12:44:16;;;;;;;;;;;;;;;15.84;32.46;95490.25;5071126;28;19949;-63
2023/03/17 12:46:46;;;;;;;;;;;;;;;15.76;31.86;95493.47;5070252;28;19956;-61
2023/03/17 12:49:31;;;;;;;;;;;;;;;15.48;32.00;95501.25;5070930;28;20010;-61
2023/03/17 12:52:05;;;;;;;;;;;;;;;15.98;31.42;95496.50;5070498;28;19963;-63
2023/03/17 12:54:34;;;;;;;;;;;;;;;15.81;31.80;95496.09;5070975;28;19962;-60
2023/03/17 12:57:04;;;;;;;;;;;;;;;16.01;32.56;95495.97;5069958;28;19986;-61
2023/03/17 12:59:32;;;;;;;;;;;;;;;16.15;32.16;95485.56;5070575;28;20018;-62
2023/03/17 13:02:14;;;;;;;;;;;;;;;16.14;31.78;95494.56;5069342;28;19954;-63